Time;durP1;ratioP1;P1;durP2;ratioP2;P2;SDS_P1;SDS_P2;PMS_P1;PMS_P2;Temp;Humidity;BMP_temperature;BMP_pressure;BME280_temperature;BME280_humidity;BME280_pressure;Samples;Min_cycle;Max_cycle;Signal;HPM_P1;HPM_P2
2021/03/26 00:02:12;;;;;;;23.05;15.65;;;9.30;99.90;;;;;;5022485;28;20128;-74
2021/03/26 00:04:39;;;;;;;20.20;15.13;;;9.30;99.90;;;;;;5024002;28;20080;-74
2021/03/26 00:07:06;;;;;;;21.85;15.15;;;9.30;99.90;;;;;;5018949;28;20077;-74
2021/03/26 00:09:35;;;;;;;22.30;15.15;;;9.20;99.90;;;;;;5029076;28;20065;-74
2021/03/26 00:12:06;;;;;;;23.65;15.80;;;9.20;99.90;;;;;;5019255;28;20041;-74
2021/03/26 00:14:32;;;;;;;22.55;15.75;;;9.10;99.90;;;;;;5019337;28;20042;-74
2021/03/26 00:17:00;;;;;;;20.88;15.90;;;9.10;99.90;;;;;;5020294;28;20137;-74
2021/03/26 00:19:26;;;;;;;23.98;16.20;;;9.00;99.90;;;;;;5002619;28;20129;-74
2021/03/26 00:21:53;;;;;;;23.33;15.98;;;9.00;99.90;;;;;;5001632;28;20091;-73
2021/03/26 00:24:19;;;;;;;22.42;16.15;;;9.00;99.90;;;;;;5003551;28;20076;-73
2021/03/26 00:26:45;;;;;;;28.27;17.05;;;8.90;99.90;;;;;;5009650;28;20068;-73
2021/03/26 00:29:12;;;;;;;24.20;16.98;;;8.90;99.90;;;;;;5013885;28;20046;-73
2021/03/26 00:31:39;;;;;;;26.35;17.92;;;8.90;99.90;;;;;;5003006;28;20521;-73
2021/03/26 00:34:06;;;;;;;27.45;18.77;;;8.90;99.90;;;;;;5008369;28;20514;-73
2021/03/26 00:36:34;;;;;;;30.08;19.00;;;8.90;99.90;;;;;;5021710;28;20137;-73
2021/03/26 00:39:01;;;;;;;26.98;18.75;;;8.80;99.90;;;;;;5021740;28;20084;-73
2021/03/26 00:41:27;;;;;;;33.78;19.42;;;8.80;99.90;;;;;;5023032;28;20128;-73
2021/03/26 00:43:54;;;;;;;29.58;20.15;;;8.80;99.90;;;;;;5021693;28;20046;-73
2021/03/26 00:46:23;;;;;;;27.83;18.17;;;8.70;99.90;;;;;;5021782;28;20077;-73
2021/03/26 00:48:49;;;;;;;28.10;18.63;;;8.70;99.90;;;;;;5023270;28;20470;-74
2021/03/26 00:51:16;;;;;;;27.75;18.23;;;8.60;99.90;;;;;;5022136;28;20465;-74
2021/03/26 00:53:43;;;;;;;27.77;18.42;;;8.60;99.90;;;;;;5020778;28;20077;-74
2021/03/26 00:56:09;;;;;;;28.33;19.08;;;8.50;99.90;;;;;;5014206;28;20125;-74
2021/03/26 00:58:36;;;;;;;32.30;19.80;;;8.50;99.90;;;;;;5011522;28;20269;-74
2021/03/26 01:01:03;;;;;;;29.25;19.63;;;8.40;99.90;;;;;;5012127;28;20057;-74
2021/03/26 01:03:30;;;;;;;28.42;19.38;;;8.40;99.90;;;;;;5012763;28;20105;-74
2021/03/26 01:06:01;;;;;;;32.40;21.98;;;8.40;99.90;;;;;;5013076;28;20159;-74
2021/03/26 01:08:29;;;;;;;30.02;20.48;;;8.40;99.90;;;;;;5013061;28;20176;-75
2021/03/26 01:10:58;;;;;;;33.90;21.95;;;8.30;99.90;;;;;;5013189;28;20129;-75
2021/03/26 01:13:25;;;;;;;32.08;21.92;;;8.30;99.90;;;;;;5016135;28;20141;-75
2021/03/26 01:15:52;;;;;;;35.42;21.67;;;8.30;99.90;;;;;;5012705;28;20129;-74
2021/03/26 01:18:25;;;;;;;34.70;22.40;;;8.30;99.90;;;;;;5012245;28;20056;-75
2021/03/26 01:20:52;;;;;;;32.10;21.75;;;8.30;99.90;;;;;;5012379;28;20070;-75
2021/03/26 01:23:19;;;;;;;32.63;21.70;;;8.30;99.90;;;;;;5012173;28;20145;-75
2021/03/26 01:25:46;;;;;;;30.75;22.40;;;8.30;99.90;;;;;;5012300;28;20129;-74
2021/03/26 01:28:16;;;;;;;33.95;22.02;;;8.30;99.90;;;;;;5012251;28;20402;-74
2021/03/26 01:30:42;;;;;;;35.38;22.55;;;8.20;99.90;;;;;;5012042;28;20085;-74
2021/03/26 01:33:09;;;;;;;31.63;22.83;;;8.20;99.90;;;;;;5012391;28;20085;-75
2021/03/26 01:35:38;;;;;;;34.53;22.05;;;8.20;99.90;;;;;;5012296;28;20128;-75
2021/03/26 01:38:04;;;;;;;34.67;23.48;;;8.20;99.90;;;;;;5011955;28;20053;-75
2021/03/26 01:40:38;;;;;;;35.40;23.83;;;8.20;99.90;;;;;;5012088;28;20136;-74
2021/03/26 01:43:08;;;;;;;36.75;25.27;;;8.10;99.90;;;;;;5012113;28;20152;-74
2021/03/26 01:45:35;;;;;;;40.13;26.00;;;8.00;99.90;;;;;;5012260;28;20525;-75
2021/03/26 01:48:02;;;;;;;38.75;26.13;;;8.00;99.90;;;;;;5021509;28;20052;-75
2021/03/26 01:50:31;;;;;;;36.92;27.00;;;8.00;99.90;;;;;;5033359;28;20111;-77
2021/03/26 01:52:57;;;;;;;47.53;27.20;;;8.00;99.90;;;;;;5035171;28;20084;-75
2021/03/26 01:55:31;;;;;;;42.38;27.48;;;8.00;99.90;;;;;;5017151;28;20046;-74
2021/03/26 01:57:57;;;;;;;42.47;28.85;;;8.00;99.90;;;;;;5012053;28;20154;-74
2021/03/26 02:00:29;;;;;;;47.30;29.52;;;8.00;99.90;;;;;;5012013;28;20081;-75
2021/03/26 02:02:56;;;;;;;44.20;29.90;;;8.00;99.90;;;;;;5011645;28;20052;-75
2021/03/26 02:05:28;;;;;;;46.72;31.98;;;8.10;99.90;;;;;;5011134;28;20112;-74
2021/03/26 02:07:55;;;;;;;49.60;33.42;;;8.10;99.90;;;;;;5012001;28;20054;-74
2021/03/26 02:10:24;;;;;;;45.70;32.13;;;8.20;99.90;;;;;;5012140;28;20480;-74
2021/03/26 02:12:58;;;;;;;49.22;33.80;;;8.20;99.90;;;;;;5011744;28;20128;-74
2021/03/26 02:15:30;;;;;;;48.83;31.73;;;8.20;99.90;;;;;;5011701;28;20084;-74
2021/03/26 02:17:58;;;;;;;49.75;33.10;;;8.20;99.90;;;;;;5011219;28;20053;-74
2021/03/26 02:20:39;;;;;;;46.15;32.92;;;8.30;99.90;;;;;;5011574;28;20081;-75
2021/03/26 02:23:08;;;;;;;55.90;33.22;;;8.30;99.90;;;;;;5011581;28;20056;-75
2021/03/26 02:25:35;;;;;;;46.75;31.88;;;8.30;99.90;;;;;;5011701;28;20046;-75
2021/03/26 02:28:01;;;;;;;45.60;30.08;;;8.30;99.90;;;;;;5010964;28;20134;-75
2021/03/26 02:30:31;;;;;;;44.20;29.15;;;8.30;99.90;;;;;;5011758;28;20141;-75
2021/03/26 02:33:00;;;;;;;47.78;28.63;;;8.10;99.90;;;;;;5011494;28;20188;-74
2021/03/26 02:35:30;;;;;;;44.53;29.80;;;7.90;99.90;;;;;;5011711;28;20050;-75
2021/03/26 02:38:01;;;;;;;47.00;29.80;;;7.80;99.90;;;;;;5011022;28;20046;-75
2021/03/26 02:40:32;;;;;;;44.72;28.70;;;7.60;99.90;;;;;;5011543;28;20100;-75
2021/03/26 02:43:07;;;;;;;46.97;30.33;;;7.50;99.90;;;;;;5011349;28;20077;-75
2021/03/26 02:45:40;;;;;;;49.70;30.65;;;7.40;99.90;;;;;;5011222;28;20566;-76
2021/03/26 02:48:09;;;;;;;;;;;7.40;99.90;;;;;;5011687;28;20179;-74
2021/03/26 02:50:56;;;;;;;44.90;29.17;;;7.30;99.90;;;;;;5011460;28;19921;-75
2021/03/26 02:53:27;;;;;;;42.95;29.13;;;7.20;99.90;;;;;;5011915;28;20145;-74
2021/03/26 02:56:00;;;;;;;50.47;32.03;;;7.10;99.90;;;;;;5011646;28;20053;-74
2021/03/26 02:58:31;;;;;;;49.28;32.00;;;7.10;99.90;;;;;;5010575;28;20056;-74
2021/03/26 03:01:03;;;;;;;54.17;32.47;;;7.10;99.90;;;;;;5010997;28;20576;-73
2021/03/26 03:03:31;;;;;;;51.38;31.45;;;7.10;99.90;;;;;;5010776;28;20107;-75
2021/03/26 03:06:03;;;;;;;52.78;32.97;;;7.10;99.90;;;;;;5011460;28;20137;-74
2021/03/26 03:08:33;;;;;;;52.03;32.08;;;7.10;99.90;;;;;;5010971;28;20522;-75
2021/03/26 03:11:07;;;;;;;50.42;31.08;;;7.10;99.90;;;;;;5011168;28;20433;-74
2021/03/26 03:13:41;;;;;;;56.35;33.88;;;7.10;99.90;;;;;;5011126;28;20055;-74
2021/03/26 03:16:16;;;;;;;49.45;33.40;;;7.10;99.90;;;;;;5011533;28;20137;-74
2021/03/26 03:18:47;;;;;;;54.20;33.08;;;7.10;99.90;;;;;;5014741;28;20414;-74
2021/03/26 03:21:17;;;;;;;61.53;35.22;;;7.10;99.90;;;;;;5014342;28;20137;-73
2021/03/26 03:23:50;;;;;;;55.42;34.20;;;7.10;99.90;;;;;;5014539;28;20141;-73
2021/03/26 03:26:25;;;;;;;55.13;33.30;;;7.10;99.90;;;;;;5014264;28;20050;-73
2021/03/26 03:28:58;;;;;;;57.22;35.45;;;7.10;99.90;;;;;;5014415;28;20132;-74
2021/03/26 03:31:29;;;;;;;57.17;34.20;;;7.20;99.90;;;;;;5014636;28;20477;-74
2021/03/26 03:34:03;;;;;;;55.08;34.40;;;7.20;99.90;;;;;;5014452;28;20458;-73
2021/03/26 03:36:43;;;;;;;55.45;33.10;;;7.20;99.90;;;;;;5014036;28;20357;-74
2021/03/26 03:39:15;;;;;;;54.28;33.72;;;7.20;99.90;;;;;;5014020;28;20429;-74
2021/03/26 03:41:46;;;;;;;57.10;33.38;;;7.20;99.90;;;;;;5014744;28;20422;-73
2021/03/26 03:44:18;;;;;;;54.35;33.53;;;7.20;99.90;;;;;;5015324;28;20054;-74
2021/03/26 03:46:50;;;;;;;54.40;33.70;;;7.10;99.90;;;;;;5014841;28;20132;-74
2021/03/26 03:49:24;;;;;;;55.50;34.73;;;7.10;99.90;;;;;;5015602;28;20056;-74
2021/03/26 03:51:58;;;;;;;53.55;34.38;;;7.10;99.90;;;;;;5014917;28;20380;-74
2021/03/26 03:54:33;;;;;;;56.15;35.05;;;7.10;99.90;;;;;;5016125;28;20074;-74
2021/03/26 03:57:03;;;;;;;60.35;36.05;;;7.00;99.90;;;;;;5015450;28;20141;-75
2021/03/26 03:59:35;;;;;;;55.13;34.17;;;7.00;99.90;;;;;;5014405;28;20081;-73
2021/03/26 04:02:05;;;;;;;61.37;35.80;;;7.00;99.90;;;;;;5014216;28;20116;-73
2021/03/26 04:04:39;;;;;;;55.90;33.90;;;6.90;99.90;;;;;;5014061;28;20060;-73
2021/03/26 04:07:09;;;;;;;58.45;35.10;;;6.90;99.90;;;;;;5013822;28;20434;-74
2021/03/26 04:09:39;;;;;;;57.22;34.50;;;6.80;99.90;;;;;;5013782;28;20165;-74
2021/03/26 04:12:11;;;;;;;54.67;34.83;;;6.80;99.90;;;;;;5013790;28;20140;-74
2021/03/26 04:14:44;;;;;;;64.63;36.55;;;6.80;99.90;;;;;;5013918;28;20137;-73
2021/03/26 04:17:16;;;;;;;57.25;34.70;;;6.80;99.90;;;;;;5013776;28;20050;-74
2021/03/26 04:19:47;;;;;;;62.47;34.33;;;6.80;99.90;;;;;;5013767;28;20174;-74
2021/03/26 04:22:17;;;;;;;57.83;34.20;;;6.80;99.90;;;;;;5014073;28;20046;-74
2021/03/26 04:24:49;;;;;;;61.35;35.45;;;6.80;99.90;;;;;;5014405;28;20093;-74
2021/03/26 04:27:23;;;;;;;54.93;33.93;;;6.80;99.90;;;;;;5013182;28;20132;-74
2021/03/26 04:29:53;;;;;;;59.50;35.65;;;6.80;99.90;;;;;;5012882;28;20308;-74
2021/03/26 04:32:21;;;;;;;59.45;36.17;;;6.80;99.90;;;;;;5013447;28;20138;-74
2021/03/26 04:34:49;;;;;;;62.20;36.35;;;6.70;99.90;;;;;;5013196;28;20101;-73
2021/03/26 04:39:58;;;;;;;63.45;35.47;;;6.70;99.90;;;;;;5016770;28;20045;-80
2021/03/26 04:42:31;;;;;;;61.53;35.83;;;6.60;99.90;;;;;;5021574;28;20065;-81
2021/03/26 04:45:08;;;;;;;61.38;37.00;;;6.60;99.90;;;;;;5028351;28;20061;-81
2021/03/26 04:47:41;;;;;;;62.67;34.83;;;6.60;99.90;;;;;;5026495;28;20561;-80
2021/03/26 04:50:15;;;;;;;60.83;33.80;;;6.50;99.90;;;;;;5023798;28;20411;-80
2021/03/26 04:52:46;;;;;;;59.33;34.70;;;6.50;99.90;;;;;;5016321;28;20056;-78
2021/03/26 04:55:18;;;;;;;67.85;35.67;;;6.50;99.90;;;;;;5019257;28;20061;-82
2021/03/26 04:57:51;;;;;;;64.88;36.03;;;6.50;99.90;;;;;;5026499;28;20133;-81
2021/03/26 05:00:23;;;;;;;61.08;35.35;;;6.40;99.90;;;;;;5026863;28;20069;-81
2021/03/26 05:02:57;;;;;;;58.00;35.40;;;6.40;99.90;;;;;;5024517;28;20099;-81
2021/03/26 05:05:25;;;;;;;58.70;33.85;;;6.40;99.90;;;;;;5023351;28;20093;-80
2021/03/26 05:07:57;;;;;;;60.83;34.45;;;6.40;99.90;;;;;;5022295;28;20109;-80
2021/03/26 05:10:27;;;;;;;59.88;34.70;;;6.40;99.90;;;;;;5022904;28;20054;-80
2021/03/26 05:12:57;;;;;;;60.35;36.90;;;6.40;99.90;;;;;;5023569;28;20046;-80
2021/03/26 05:15:27;;;;;;;60.45;35.05;;;6.40;99.90;;;;;;5022488;28;20092;-80
2021/03/26 05:18:01;;;;;;;61.25;34.42;;;6.40;99.90;;;;;;5021019;28;20100;-80
2021/03/26 05:20:33;;;;;;;54.38;34.58;;;6.40;99.90;;;;;;5023095;28;20060;-80
2021/03/26 05:23:05;;;;;;;60.55;34.38;;;6.40;99.90;;;;;;5019519;28;20057;-79
2021/03/26 05:25:35;;;;;;;62.50;35.92;;;6.40;99.90;;;;;;5017251;28;20149;-79
2021/03/26 05:28:04;;;;;;;57.70;35.88;;;6.40;99.90;;;;;;5019142;28;20046;-80
2021/03/26 05:30:38;;;;;;;61.80;36.60;;;6.40;99.90;;;;;;5019541;28;20400;-80
2021/03/26 05:33:09;;;;;;;67.97;36.97;;;6.30;99.90;;;;;;5020751;28;20042;-80
2021/03/26 05:35:41;;;;;;;62.33;36.92;;;6.30;99.90;;;;;;5021625;28;20150;-82
2021/03/26 05:38:13;;;;;;;65.80;37.80;;;6.40;99.90;;;;;;5022236;28;20149;-81
2021/03/26 05:41:01;;;;;;;60.38;35.88;;;6.40;99.90;;;;;;5028216;28;20085;-80
2021/03/26 05:44:07;;;;;;;60.28;33.70;;;6.40;99.90;;;;;;5027459;28;20049;-80
2021/03/26 05:46:45;;;;;;;55.40;33.75;;;6.50;99.90;;;;;;5012215;28;20522;-80
2021/03/26 05:49:23;;;;;;;60.28;34.85;;;6.50;99.90;;;;;;5029491;28;20053;-80
2021/03/26 05:52:15;;;;;;;56.70;35.08;;;6.50;99.90;;;;;;5027897;28;20077;-81
2021/03/26 05:54:55;;;;;;;57.58;34.20;;;6.50;99.90;;;;;;5020281;28;20077;-82
2021/03/26 05:57:29;;;;;;;58.33;34.70;;;6.60;99.90;;;;;;5028714;28;20060;-80
2021/03/26 06:00:28;;;;;;;66.80;35.63;;;6.70;99.90;;;;;;5022652;28;20057;-80
2021/03/26 06:03:20;;;;;;;60.33;34.90;;;6.70;99.90;;;;;;5020690;28;20050;-80
2021/03/26 06:06:06;;;;;;;61.42;33.47;;;6.80;99.90;;;;;;5021104;28;20074;-80
2021/03/26 06:08:57;;;;;;;65.28;34.60;;;6.90;99.90;;;;;;5022299;28;20133;-81
2021/03/26 06:11:40;;;;;;;62.33;34.70;;;6.90;99.90;;;;;;5022234;28;20600;-82
2021/03/26 06:14:28;;;;;;;53.47;33.83;;;7.00;99.90;;;;;;5020655;28;20089;-81
2021/03/26 06:17:31;;;;;;;54.92;32.25;;;7.00;99.90;;;;;;5024511;28;20514;-81
2021/03/26 06:20:27;;;;;;;60.38;33.63;;;7.20;99.90;;;;;;5025106;28;20050;-81
2021/03/26 06:23:18;;;;;;;54.97;34.85;;;7.20;99.90;;;;;;5024385;28;20175;-81
2021/03/26 06:26:05;;;;;;;52.28;32.55;;;7.30;99.90;;;;;;5024984;28;20065;-83
2021/03/26 06:28:41;;;;;;;51.58;33.75;;;7.40;99.90;;;;;;5022648;28;20046;-81
2021/03/26 06:31:56;;;;;;;50.33;30.90;;;7.70;99.90;;;;;;5020167;28;20100;-80
2021/03/26 06:35:00;;;;;;;49.67;29.88;;;8.20;99.90;;;;;;4938594;29;20086;-78
2021/03/26 06:37:56;;;;;;;51.03;31.50;;;8.70;99.90;;;;;;4975086;28;20133;-83
2021/03/26 06:40:42;;;;;;;42.95;28.77;;;9.30;99.90;;;;;;5017359;28;20138;-79
2021/03/26 06:43:33;;;;;;;44.97;28.65;;;9.70;99.90;;;;;;5017974;28;20141;-80
2021/03/26 06:46:19;;;;;;;42.33;29.45;;;10.10;99.90;;;;;;4975807;28;20137;-80
2021/03/26 06:49:01;;;;;;;46.83;29.38;;;10.50;99.90;;;;;;5020340;28;20117;-81
2021/03/26 06:51:48;;;;;;;42.22;29.25;;;10.90;99.90;;;;;;5028426;28;20049;-80
2021/03/26 06:54:37;;;;;;;41.65;29.58;;;11.10;99.90;;;;;;5033756;28;20081;-81
2021/03/26 06:57:39;;;;;;;41.25;29.92;;;11.40;99.90;;;;;;5029631;28;20082;-80
2021/03/26 07:00:43;;;;;;;42.75;28.40;;;11.50;99.90;;;;;;5027681;28;20057;-81
2021/03/26 07:03:43;;;;;;;42.25;30.75;;;11.80;99.90;;;;;;5026234;28;20054;-80
2021/03/26 07:07:03;;;;;;;39.85;29.92;;;12.00;99.90;;;;;;5021551;28;20140;-80
2021/03/26 07:10:09;;;;;;;43.55;30.65;;;12.40;99.90;;;;;;4943996;29;20083;-81
2021/03/26 07:12:52;;;;;;;46.83;30.15;;;12.90;99.90;;;;;;4920164;29;20075;-81
2021/03/26 07:15:22;;;;;;;46.03;32.90;;;13.30;99.90;;;;;;5008765;28;20489;-80
2021/03/26 07:18:10;;;;;;;45.97;31.35;;;13.60;99.90;;;;;;5022932;28;20056;-80
2021/03/26 07:20:51;;;;;;;44.97;30.98;;;13.60;99.90;;;;;;5021501;28;20080;-80
2021/03/26 07:23:47;;;;;;;43.70;31.83;;;13.70;99.90;;;;;;5024467;28;20073;-80
2021/03/26 07:26:48;;;;;;;44.22;30.58;;;13.80;99.90;;;;;;5022910;28;20522;-79
2021/03/26 07:29:33;;;;;;;46.28;31.70;;;14.00;99.90;;;;;;4985603;28;20089;-79
2021/03/26 07:32:24;;;;;;;37.33;29.63;;;14.20;99.90;;;;;;5017621;28;20088;-79
2021/03/26 07:35:03;;;;;;;41.80;30.33;;;14.20;99.90;;;;;;5018715;28;20128;-81
2021/03/26 07:37:38;;;;;;;36.28;28.77;;;14.60;99.90;;;;;;5016900;28;20121;-77
2021/03/26 07:40:38;;;;;;;34.97;26.77;;;14.70;99.90;;;;;;5023444;28;20054;-81
2021/03/26 07:43:26;;;;;;;32.70;26.48;;;14.50;99.90;;;;;;5024287;28;20136;-82
2021/03/26 07:46:30;;;;;;;38.95;29.35;;;14.50;99.90;;;;;;5023147;28;20054;-81
2021/03/26 07:49:11;;;;;;;34.00;26.08;;;14.80;99.90;;;;;;5002919;28;20079;-80
2021/03/26 07:51:43;;;;;;;33.05;26.65;;;14.80;99.90;;;;;;5003096;28;20137;-82
2021/03/26 07:54:36;;;;;;;35.95;26.90;;;14.70;99.90;;;;;;5003214;28;20114;-80
2021/03/26 07:57:17;;;;;;;35.78;25.92;;;14.70;99.90;;;;;;4999223;28;20418;-77
2021/03/26 08:00:13;;;;;;;36.22;26.98;;;14.80;99.90;;;;;;5000004;28;20062;-80
2021/03/26 08:02:45;;;;;;;40.95;26.77;;;14.50;99.90;;;;;;4997697;28;20046;-80
2021/03/26 08:05:18;;;;;;;;;;;14.60;99.90;;;;;;4999924;28;20505;-80
2021/03/26 08:08:32;;;;;;;37.75;26.63;;;14.60;99.90;;;;;;5003692;28;20441;-80
2021/03/26 08:11:07;;;;;;;37.33;25.50;;;14.60;99.90;;;;;;4998870;28;20140;-80
2021/03/26 08:14:03;;;;;;;36.97;27.13;;;14.90;99.90;;;;;;4998436;28;20085;-80
2021/03/26 08:16:52;;;;;;;38.78;25.85;;;15.20;99.90;;;;;;4997217;28;20144;-79
2021/03/26 08:19:29;;;;;;;35.70;25.48;;;15.20;99.90;;;;;;4997317;28;20129;-80
2021/03/26 08:22:03;;;;;;;34.00;26.40;;;15.50;99.90;;;;;;4997837;28;20476;-81
2021/03/26 08:24:45;;;;;;;35.28;26.17;;;15.30;99.90;;;;;;4998554;28;20191;-80
2021/03/26 08:27:24;;;;;;;32.87;26.23;;;15.70;99.90;;;;;;4999390;28;20046;-80
2021/03/26 08:30:04;;;;;;;33.22;25.33;;;16.10;99.90;;;;;;5002028;28;20387;-80
2021/03/26 08:33:14;;;;;;;31.33;25.45;;;16.20;99.90;;;;;;5002933;28;20046;-81
2021/03/26 08:36:12;;;;;;;34.65;24.90;;;16.60;99.90;;;;;;4989858;28;20600;-79
2021/03/26 08:38:52;;;;;;;33.25;26.42;;;16.30;99.90;;;;;;4999837;28;20129;-80
2021/03/26 08:41:22;;;;;;;36.58;26.58;;;16.10;99.90;;;;;;4999210;28;20081;-81
2021/03/26 08:43:50;;;;;;;36.33;26.35;;;16.00;99.90;;;;;;4999572;28;20114;-80
2021/03/26 08:46:20;;;;;;;32.70;27.08;;;16.10;99.90;;;;;;4999124;28;20096;-79
2021/03/26 08:48:54;;;;;;;34.28;25.42;;;16.10;99.90;;;;;;4997978;28;20137;-80
2021/03/26 08:52:08;;;;;;;33.38;26.77;;;16.00;99.90;;;;;;4997166;28;20061;-78
2021/03/26 08:54:48;;;;;;;36.90;26.15;;;15.80;99.90;;;;;;4997088;28;20085;-80
2021/03/26 08:57:26;;;;;;;41.65;27.17;;;16.20;99.90;;;;;;4996818;28;20208;-77
2021/03/26 09:00:10;;;;;;;34.45;26.75;;;16.40;99.90;;;;;;4997567;28;20523;-79
2021/03/26 09:03:04;;;;;;;35.60;26.17;;;16.30;99.90;;;;;;4997361;28;20149;-80
2021/03/26 09:05:48;;;;;;;36.33;24.35;;;16.30;99.90;;;;;;4997734;28;20101;-80
2021/03/26 09:08:31;;;;;;;28.58;23.75;;;16.40;99.90;;;;;;4997184;28;20054;-80
2021/03/26 09:11:22;;;;;;;32.80;23.20;;;16.40;99.90;;;;;;5001198;28;20522;-80
2021/03/26 09:14:05;;;;;;;28.73;22.95;;;16.50;99.90;;;;;;5000635;28;20133;-80
2021/03/26 09:16:35;;;;;;;34.70;22.40;;;16.20;99.90;;;;;;4999154;28;20046;-79
2021/03/26 09:19:07;;;;;;;32.20;23.20;;;16.30;99.90;;;;;;4997734;28;20085;-80
2021/03/26 09:21:49;;;;;;;36.35;20.60;;;16.50;99.90;;;;;;4999731;28;20050;-80
2021/03/26 09:24:34;;;;;;;38.78;21.42;;;16.30;99.90;;;;;;4996647;28;20129;-80
2021/03/26 09:27:26;;;;;;;29.52;19.73;;;16.30;99.90;;;;;;4995806;28;20479;-79
2021/03/26 09:30:09;;;;;;;27.77;20.38;;;16.10;99.90;;;;;;4995475;28;20050;-79
2021/03/26 09:32:43;;;;;;;27.67;20.92;;;16.00;99.90;;;;;;4995853;28;20050;-78
2021/03/26 09:35:15;;;;;;;26.35;19.45;;;15.90;99.90;;;;;;4994809;28;20554;-79
2021/03/26 09:37:46;;;;;;;27.48;20.98;;;15.70;99.90;;;;;;4993967;28;20137;-78
2021/03/26 09:40:40;;;;;;;24.92;18.48;;;15.60;99.90;;;;;;4995495;28;20054;-78
2021/03/26 09:43:18;;;;;;;18.92;14.68;;;15.50;99.90;;;;;;4993576;28;20061;-78
2021/03/26 09:45:51;;;;;;;28.85;17.38;;;15.60;99.90;;;;;;4993235;28;20050;-80
2021/03/26 09:48:35;;;;;;;;;;;15.50;99.90;;;;;;4996511;28;20511;-79
2021/03/26 09:51:09;;;;;;;31.00;16.08;;;15.70;99.90;;;;;;4997745;28;19932;-80
2021/03/26 09:53:40;;;;;;;46.47;17.42;;;15.70;99.90;;;;;;5000519;28;20503;-79
2021/03/26 09:56:36;;;;;;;29.73;15.90;;;15.70;99.90;;;;;;4998773;28;20085;-79
2021/03/26 09:59:15;;;;;;;20.75;14.65;;;15.90;99.90;;;;;;4993342;28;20108;-80
2021/03/26 10:01:46;;;;;;;18.80;14.82;;;15.90;99.90;;;;;;5001984;28;20050;-81
2021/03/26 10:04:18;;;;;;;24.73;14.90;;;16.10;99.90;;;;;;4999846;28;20106;-79
2021/03/26 10:06:58;;;;;;;23.75;13.25;;;16.20;99.90;;;;;;5000890;28;20140;-82
2021/03/26 10:09:31;;;;;;;21.10;12.10;;;16.10;99.90;;;;;;4998230;28;20505;-80
2021/03/26 10:12:09;;;;;;;16.40;10.90;;;16.00;99.90;;;;;;4996088;28;20514;-78
2021/03/26 10:14:41;;;;;;;17.38;10.68;;;16.00;99.90;;;;;;4993701;28;20507;-77
2021/03/26 10:17:40;;;;;;;19.27;10.13;;;16.30;99.90;;;;;;4993478;28;20089;-78
2021/03/26 10:20:18;;;;;;;14.43;9.85;;;16.80;99.90;;;;;;4994435;28;20064;-79
2021/03/26 10:22:52;;;;;;;20.52;10.45;;;17.00;99.90;;;;;;4995216;28;20513;-79
2021/03/26 10:25:29;;;;;;;22.85;9.88;;;17.10;99.90;;;;;;4995197;28;20142;-78
2021/03/26 10:28:03;;;;;;;12.57;9.27;;;17.10;99.90;;;;;;5002402;28;20061;-80
2021/03/26 10:30:36;;;;;;;16.30;9.52;;;17.10;99.90;;;;;;5000530;28;20058;-79
2021/03/26 10:33:08;;;;;;;14.65;9.57;;;16.90;99.90;;;;;;4998932;28;20050;-78
2021/03/26 10:35:37;;;;;;;15.75;9.25;;;16.70;99.90;;;;;;4997943;28;20108;-78
2021/03/26 10:38:08;;;;;;;13.20;9.35;;;16.40;99.90;;;;;;4998200;28;20050;-77
2021/03/26 10:40:42;;;;;;;18.92;9.55;;;16.50;99.90;;;;;;4997573;28;20050;-75
2021/03/26 10:43:17;;;;;;;16.63;8.45;;;16.50;99.90;;;;;;4996770;28;20138;-75
2021/03/26 10:45:55;;;;;;;13.25;7.05;;;16.70;99.90;;;;;;4997008;28;20182;-78
2021/03/26 10:48:28;;;;;;;13.98;7.40;;;16.80;99.90;;;;;;4996047;28;20519;-78
2021/03/26 10:51:42;;;;;;;13.68;7.55;;;17.10;99.90;;;;;;4996491;28;20426;-75
2021/03/26 10:54:18;;;;;;;11.90;7.45;;;17.20;99.90;;;;;;4996538;28;20140;-78
2021/03/26 10:56:57;;;;;;;12.15;7.85;;;17.40;99.90;;;;;;5015393;28;20085;-79
2021/03/26 10:59:32;;;;;;;12.90;8.20;;;17.40;99.90;;;;;;5016564;28;20053;-78
2021/03/26 11:02:31;;;;;;;18.02;7.72;;;17.30;99.90;;;;;;5019327;28;20046;-79
2021/03/26 11:05:08;;;;;;;18.88;8.88;;;17.20;99.90;;;;;;5025610;28;20054;-77
2021/03/26 11:07:39;;;;;;;11.25;7.78;;;17.10;99.90;;;;;;5025277;28;20104;-77
2021/03/26 11:10:11;;;;;;;8.98;6.78;;;17.10;99.90;;;;;;5016534;28;20049;-78
2021/03/26 11:12:44;;;;;;;12.82;7.55;;;17.20;99.90;;;;;;5015799;28;20050;-77
2021/03/26 11:15:15;;;;;;;10.90;7.43;;;17.20;99.90;;;;;;5016097;28;20072;-78
2021/03/26 11:18:01;;;;;;;12.20;7.07;;;17.20;99.90;;;;;;5015694;28;20053;-78
2021/03/26 11:20:49;;;;;;;11.52;6.75;;;17.10;99.90;;;;;;5015467;28;20053;-78
2021/03/26 11:23:25;;;;;;;15.80;7.82;;;16.90;99.90;;;;;;5013765;28;20103;-78
2021/03/26 11:26:04;;;;;;;9.80;7.07;;;16.90;99.90;;;;;;5015601;28;20064;-78
2021/03/26 11:28:39;;;;;;;11.15;8.27;;;17.00;99.90;;;;;;5015487;28;20053;-78
2021/03/26 11:31:13;;;;;;;21.25;8.73;;;17.20;99.90;;;;;;5013017;28;20104;-79
2021/03/26 11:34:00;;;;;;;29.15;10.00;;;17.20;99.90;;;;;;5010542;28;20050;-77
2021/03/26 11:36:55;;;;;;;15.27;9.15;;;17.30;99.90;;;;;;5013906;28;20042;-78
2021/03/26 11:39:31;;;;;;;14.45;9.20;;;17.30;99.90;;;;;;5012049;28;20142;-78
2021/03/26 11:42:06;;;;;;;15.60;9.63;;;17.40;99.90;;;;;;5013557;28;20054;-79
2021/03/26 11:44:40;;;;;;;13.15;8.90;;;17.50;99.90;;;;;;5013800;28;20477;-79
2021/03/26 11:47:31;;;;;;;17.48;9.27;;;17.40;99.90;;;;;;5015609;28;20050;-78
2021/03/26 11:50:06;;;;;;;15.20;9.55;;;17.40;99.90;;;;;;4998492;28;20145;-79
2021/03/26 11:52:40;;;;;;;13.23;9.27;;;17.20;99.90;;;;;;4997518;28;20050;-79
2021/03/26 11:55:18;;;;;;;15.43;9.35;;;17.10;99.90;;;;;;4995623;28;20061;-82
2021/03/26 11:57:52;;;;;;;16.50;9.43;;;17.20;99.90;;;;;;5019544;28;20510;-80
2021/03/26 12:00:23;;;;;;;13.23;10.02;;;17.10;99.90;;;;;;5016561;28;20485;-80
2021/03/26 12:02:54;;;;;;;13.27;9.85;;;17.20;99.90;;;;;;5023259;28;20085;-79
2021/03/26 12:05:47;;;;;;;18.45;9.60;;;17.30;99.90;;;;;;5026392;28;20125;-80
2021/03/26 12:08:19;;;;;;;19.63;8.95;;;17.30;99.90;;;;;;4990883;28;20124;-79
2021/03/26 12:10:54;;;;;;;12.50;9.57;;;17.30;99.90;;;;;;5015729;28;20597;-79
2021/03/26 12:13:24;;;;;;;16.45;9.48;;;17.50;99.90;;;;;;5020254;28;20073;-79
2021/03/26 12:15:59;;;;;;;13.30;9.18;;;17.40;99.90;;;;;;5021397;28;20077;-82
2021/03/26 12:18:32;;;;;;;15.35;8.68;;;17.30;99.90;;;;;;5005958;28;20046;-79
2021/03/26 12:21:12;;;;;;;12.30;8.82;;;17.10;99.90;;;;;;4999397;28;20514;-80
2021/03/26 12:23:46;;;;;;;12.45;7.95;;;17.00;99.90;;;;;;4999475;28;20137;-78
2021/03/26 12:26:26;;;;;;;12.40;7.95;;;17.00;99.90;;;;;;5007019;28;20089;-79
2021/03/26 12:29:18;;;;;;;14.57;7.30;;;17.00;99.90;;;;;;5012402;28;20095;-78
2021/03/26 12:31:55;;;;;;;10.25;7.03;;;17.00;99.90;;;;;;5007617;28;20133;-79
2021/03/26 12:34:42;;;;;;;9.25;6.32;;;17.20;99.90;;;;;;5010457;28;20096;-79
2021/03/26 12:37:13;;;;;;;10.50;6.88;;;17.30;99.90;;;;;;4988969;28;20046;-77
2021/03/26 12:39:43;;;;;;;14.05;6.90;;;17.50;99.90;;;;;;5017445;28;20462;-79
2021/03/26 12:42:14;;;;;;;17.67;8.02;;;17.40;99.90;;;;;;4998678;28;20133;-78
2021/03/26 12:44:43;;;;;;;10.52;6.88;;;17.40;99.90;;;;;;5011452;28;20128;-78
2021/03/26 12:47:32;;;;;;;10.48;6.72;;;17.40;99.90;;;;;;4996234;28;20133;-77
2021/03/26 12:50:07;;;;;;;20.05;7.50;;;17.40;99.90;;;;;;5010583;28;20114;-77
2021/03/26 12:52:48;;;;;;;13.85;7.75;;;17.40;99.90;;;;;;5033086;28;20157;-76
2021/03/26 12:55:21;;;;;;;14.40;7.07;;;17.50;99.90;;;;;;5023520;28;20132;-79
2021/03/26 12:57:57;;;;;;;11.05;7.28;;;17.70;99.90;;;;;;5034326;28;20550;-80
2021/03/26 13:00:37;;;;;;;10.18;7.40;;;17.80;99.90;;;;;;5016313;28;20130;-81
2021/03/26 13:03:14;;;;;;;8.18;6.65;;;17.70;99.90;;;;;;5017261;28;20052;-80
2021/03/26 13:05:44;;;;;;;10.38;6.68;;;17.70;99.90;;;;;;5011999;28;20136;-80
2021/03/26 13:08:14;;;;;;;9.85;6.20;;;17.60;99.90;;;;;;5022783;28;20075;-81
2021/03/26 13:10:51;;;;;;;11.15;6.65;;;17.70;99.90;;;;;;5020676;28;20049;-80
2021/03/26 13:13:31;;;;;;;14.27;6.40;;;17.70;99.90;;;;;;5008495;28;20486;-80
2021/03/26 13:16:30;;;;;;;9.57;6.70;;;17.80;99.90;;;;;;5014155;28;20092;-79
2021/03/26 13:19:00;;;;;;;10.57;6.93;;;17.80;99.90;;;;;;5006096;28;20133;-79
2021/03/26 13:21:36;;;;;;;9.63;6.15;;;18.00;99.90;;;;;;5020171;28;20077;-80
2021/03/26 13:24:17;;;;;;;9.68;6.07;;;18.00;99.90;;;;;;5019037;28;20513;-80
2021/03/26 13:26:44;;;;;;;9.52;5.57;;;18.10;99.90;;;;;;5004910;28;20081;-80
2021/03/26 13:29:21;;;;;;;10.55;5.60;;;18.20;99.90;;;;;;5008734;28;20487;-79